createdAt,value
2019-04-11T00:00:45.853Z,62.72
2019-04-11T00:03:15.916Z,62.64
2019-04-11T00:05:45.912Z,62.59
2019-04-11T00:08:15.876Z,62.38
2019-04-11T00:10:46.841Z,62.39
2019-04-11T00:13:23.392Z,62.49
2019-04-11T00:15:48.869Z,62.48
2019-04-11T00:18:18.867Z,62.58
2019-04-11T00:20:48.874Z,63.14
2019-04-11T00:23:18.842Z,63.86
2019-04-11T00:25:49.598Z,64.56
2019-04-11T00:28:19.689Z,64.92
2019-04-11T00:30:50.463Z,65.09
2019-04-11T00:33:20.523Z,65.09
2019-04-11T00:35:50.526Z,65.38
2019-04-11T00:38:21.445Z,65.40
2019-04-11T00:40:51.463Z,65.52
2019-04-11T00:43:30.440Z,65.71
2019-04-11T00:45:54.056Z,65.65
2019-04-11T00:48:24.176Z,65.87
2019-04-11T00:50:54.176Z,65.81
2019-04-11T00:53:24.350Z,65.71
2019-04-11T00:55:54.345Z,65.32
2019-04-11T00:58:24.319Z,65.29
2019-04-11T01:00:55.540Z,65.45
2019-04-11T01:03:26.419Z,65.72
2019-04-11T01:05:56.740Z,66.08
2019-04-11T01:08:27.356Z,66.36
2019-04-11T01:10:57.557Z,66.75
2019-04-11T01:13:39.125Z,66.82
2019-04-11T01:16:00.797Z,66.98
2019-04-11T01:18:30.946Z,67.20
2019-04-11T01:21:02.016Z,67.46
2019-04-11T01:23:33.199Z,67.78
2019-04-11T01:26:03.377Z,67.45
2019-04-11T01:28:34.393Z,67.50
2019-04-11T01:31:06.186Z,67.66
2019-04-11T01:33:36.138Z,67.64
2019-04-11T01:36:07.018Z,67.65
2019-04-11T01:38:38.741Z,67.62
2019-04-11T01:41:09.967Z,67.82
2019-04-11T01:43:52.146Z,68.32
2019-04-11T01:46:11.889Z,68.70
2019-04-11T01:48:43.855Z,68.53
2019-04-11T01:51:13.869Z,68.25
2019-04-11T01:53:43.839Z,68.21
2019-04-11T01:56:14.851Z,68.21
2019-04-11T01:58:44.856Z,67.87
2019-04-11T02:01:16.806Z,68.03
2019-04-11T02:03:55.279Z,68.23
2019-04-11T02:06:25.782Z,68.30
2019-04-11T02:08:55.788Z,68.60
2019-04-11T02:11:25.791Z,68.96
2019-04-11T02:14:05.144Z,69.22
2019-04-11T02:16:27.550Z,68.91
2019-04-11T02:18:57.519Z,69.33
2019-04-11T02:21:27.916Z,69.79
2019-04-11T02:24:11.919Z,69.73
2019-04-11T02:26:46.537Z,70.34
2019-04-11T02:29:15.387Z,70.45
2019-04-11T02:31:46.716Z,71.02
2019-04-11T02:34:17.244Z,71.16
2019-04-11T02:36:48.925Z,71.44
2019-04-11T02:39:20.267Z,71.72
2019-04-11T02:41:52.705Z,71.87
2019-04-11T02:44:46.070Z,71.73
2019-04-11T02:47:01.830Z,71.53
2019-04-11T02:49:27.782Z,71.24
2019-04-11T02:51:58.622Z,71.18
2019-04-11T02:54:30.537Z,71.25
2019-04-11T02:57:02.575Z,71.53
2019-04-11T02:59:34.374Z,71.54
2019-04-11T03:02:06.828Z,71.50
2019-04-11T03:04:37.105Z,71.24
2019-04-11T03:07:08.042Z,71.54
2019-04-11T03:09:39.321Z,71.33
2019-04-11T03:12:11.494Z,71.44
2019-04-11T03:15:01.058Z,71.54
2019-04-11T03:17:20.676Z,71.95
2019-04-11T03:19:59.464Z,71.88
2019-04-11T03:22:18.198Z,72.00
2019-04-11T03:24:49.201Z,71.94
2019-04-11T03:27:20.168Z,72.27
2019-04-11T03:29:52.133Z,72.74
2019-04-11T03:33:25.465Z,72.97
2019-04-11T03:37:59.647Z,74.47
2019-04-11T03:40:27.097Z,74.60
2019-04-11T03:42:52.381Z,74.89
2019-04-11T03:45:33.258Z,75.04
2019-04-11T03:47:57.670Z,75.73
2019-04-11T03:50:16.530Z,75.82
2019-04-11T03:52:45.039Z,75.88
2019-04-11T03:55:15.726Z,76.08
2019-04-11T03:57:47.026Z,76.05
2019-04-11T04:00:19.200Z,76.15
2019-04-11T04:02:49.623Z,76.31
2019-04-11T04:05:21.664Z,76.37
2019-04-11T04:07:52.943Z,76.32
2019-04-11T04:10:25.741Z,76.21
2019-04-11T04:12:58.049Z,76.13
2019-04-11T04:15:52.005Z,76.11
2019-04-11T04:18:21.343Z,76.27
2019-04-11T04:20:53.364Z,76.15
2019-04-11T04:23:25.051Z,76.06
2019-04-11T04:25:55.400Z,75.25
2019-04-11T04:28:27.097Z,75.02
2019-04-11T04:30:57.983Z,74.89
2019-04-11T04:33:29.332Z,74.55
2019-04-11T04:36:02.133Z,75.17
2019-04-11T04:38:33.834Z,75.38
2019-04-11T04:41:16.917Z,75.62
2019-04-11T04:43:36.695Z,75.80
2019-04-11T04:46:25.055Z,75.76
2019-04-11T04:48:40.380Z,75.60
2019-04-11T04:51:12.143Z,73.26
2019-04-11T04:53:43.042Z,73.59
2019-04-11T04:56:13.860Z,74.60
2019-04-11T04:58:46.632Z,75.03
2019-04-11T05:01:17.160Z,74.42
2019-04-11T05:03:48.826Z,74.01
2019-04-11T05:06:20.700Z,74.58
2019-04-11T05:08:51.407Z,74.27
2019-04-11T05:11:23.129Z,74.37
2019-04-11T05:13:54.518Z,74.29
2019-04-11T05:16:24.685Z,74.51
2019-04-11T05:18:54.831Z,74.29
2019-04-11T05:21:25.445Z,74.49
2019-04-11T05:23:56.651Z,74.12
2019-04-11T05:26:27.863Z,73.75
2019-04-11T05:28:57.915Z,73.03
2019-04-11T05:31:27.877Z,72.30
2019-04-11T05:33:57.900Z,72.62
2019-04-11T05:36:30.427Z,72.55
2019-04-11T05:39:00.580Z,72.27
2019-04-11T05:41:31.451Z,71.71
2019-04-11T05:44:03.137Z,71.03
2019-04-11T05:46:45.437Z,70.90
2019-04-11T05:49:21.174Z,70.98
2019-04-11T05:52:04.206Z,70.74
2019-04-11T05:54:47.972Z,70.35
2019-04-11T05:57:21.288Z,69.31
2019-04-11T05:59:50.931Z,69.26
2019-04-11T06:02:27.509Z,69.10
2019-04-11T06:05:00.416Z,69.03
2019-04-11T06:07:32.762Z,68.56
2019-04-11T06:10:13.269Z,68.79
2019-04-11T06:12:52.633Z,68.24
2019-04-11T06:15:25.022Z,68.07
2019-04-11T06:17:55.138Z,67.08
2019-04-11T06:20:43.223Z,66.61
2019-04-11T06:23:21.401Z,66.14
2019-04-11T06:25:55.752Z,66.01
2019-04-11T06:28:28.519Z,65.34
2019-04-11T06:31:18.115Z,64.87
2019-04-11T06:33:56.624Z,65.06
2019-04-11T06:36:45.269Z,64.82
2019-04-11T06:39:35.589Z,64.16
2019-04-11T06:42:07.631Z,63.24
2019-04-11T06:44:39.749Z,61.66
2019-04-11T06:47:27.376Z,61.33
2019-04-11T06:50:15.571Z,60.28
2019-04-11T06:52:46.480Z,60.46
2019-04-11T06:55:21.143Z,61.12
2019-04-11T06:58:02.760Z,60.94
2019-04-11T07:00:33.574Z,60.00
2019-04-11T07:03:09.283Z,58.99
2019-04-11T07:05:38.745Z,57.76
2019-04-11T07:08:09.607Z,58.46
2019-04-11T07:10:44.719Z,57.31
2019-04-11T07:13:25.339Z,56.13
2019-04-11T07:15:55.336Z,55.27
2019-04-11T07:18:46.395Z,56.07
2019-04-11T07:21:17.079Z,54.34
2019-04-11T07:24:05.354Z,53.23
2019-04-11T07:26:37.363Z,52.54
2019-04-11T07:29:25.806Z,53.22
2019-04-11T07:32:07.096Z,53.34
2019-04-11T07:34:52.403Z,52.81
2019-04-11T07:37:33.641Z,51.08
2019-04-11T07:40:15.547Z,52.20
2019-04-11T07:42:52.095Z,51.00
2019-04-11T07:45:40.225Z,50.06
2019-04-11T07:48:12.855Z,49.74
2019-04-11T07:50:44.310Z,50.10
2019-04-11T07:53:15.988Z,49.50
2019-04-11T07:55:46.682Z,49.34
2019-04-11T07:58:19.346Z,48.53
2019-04-11T08:01:08.270Z,48.74
2019-04-11T08:03:49.260Z,48.21
2019-04-11T08:06:30.984Z,48.15
2019-04-11T08:09:17.719Z,48.62
2019-04-11T08:11:49.833Z,47.22
2019-04-11T08:14:40.349Z,46.54
2019-04-11T08:17:11.975Z,47.17
2019-04-11T08:19:59.677Z,47.51
2019-04-11T08:22:37.374Z,47.55
2019-04-11T08:25:25.135Z,47.52
2019-04-11T08:28:04.901Z,47.53
2019-04-11T08:30:36.862Z,47.17
2019-04-11T08:33:09.102Z,48.23
2019-04-11T08:35:51.410Z,46.07
2019-04-11T08:38:24.699Z,46.44
2019-04-11T08:41:03.096Z,45.19
2019-04-11T08:43:35.280Z,45.53
2019-04-11T08:46:12.925Z,45.49
2019-04-11T08:48:45.635Z,45.09
2019-04-11T08:51:19.049Z,44.63
2019-04-11T08:54:07.277Z,43.82
2019-04-11T08:56:39.122Z,43.30
2019-04-11T08:59:38.343Z,43.33
2019-04-11T09:02:08.898Z,43.07
2019-04-11T09:05:04.469Z,43.76
2019-04-11T09:07:29.834Z,44.25
2019-04-11T09:10:17.937Z,44.45
2019-04-11T09:12:50.880Z,45.31
2019-04-11T09:15:22.596Z,45.69
2019-04-11T09:18:02.053Z,44.22
2019-04-11T09:20:40.143Z,44.24
2019-04-11T09:23:11.354Z,42.91
2019-04-11T09:26:01.706Z,44.26
2019-04-11T09:28:36.053Z,44.82
2019-04-11T09:31:10.553Z,44.71
2019-04-11T09:33:57.717Z,44.42
2019-04-11T09:36:38.802Z,44.21
2019-04-11T09:39:19.152Z,43.47
2019-04-11T09:42:03.107Z,42.50
2019-04-11T09:44:49.841Z,42.54
2019-04-11T09:47:22.142Z,41.24
2019-04-11T09:50:00.073Z,41.50
2019-04-11T09:52:43.681Z,41.53
2019-04-11T09:55:31.460Z,40.01
2019-04-11T09:58:02.936Z,39.33
2019-04-11T10:00:34.824Z,38.69
2019-04-11T10:03:06.725Z,39.56
2019-04-11T10:05:44.819Z,40.24
2019-04-11T10:08:22.553Z,40.67
2019-04-11T10:11:10.104Z,41.85
2019-04-11T10:13:44.939Z,42.07
2019-04-11T10:16:17.887Z,40.84
2019-04-11T10:19:05.853Z,40.94
2019-04-11T10:21:37.560Z,40.57
2019-04-11T10:24:18.925Z,40.96
2019-04-11T10:26:52.027Z,41.51
2019-04-11T10:29:40.024Z,41.63
2019-04-11T10:32:11.793Z,41.94
2019-04-11T10:34:46.577Z,41.94
2019-04-11T10:37:18.129Z,41.50
2019-04-11T10:39:53.560Z,41.16
2019-04-11T10:42:24.927Z,41.00
2019-04-11T10:45:12.651Z,40.02
2019-04-11T10:47:42.595Z,40.68
2019-04-11T10:50:23.703Z,40.64
2019-04-11T10:52:55.520Z,40.64
2019-04-11T10:55:29.816Z,41.01
2019-04-11T10:58:10.912Z,40.67
2019-04-11T11:00:57.761Z,40.56
2019-04-11T11:03:30.596Z,40.55
2019-04-11T11:06:08.390Z,40.79
2019-04-11T11:08:43.768Z,40.37
2019-04-11T11:11:16.428Z,40.72
2019-04-11T11:14:06.683Z,40.99
2019-04-11T11:16:41.934Z,40.47
2019-04-11T11:19:37.210Z,40.59
2019-04-11T11:21:47.656Z,40.25
2019-04-11T11:24:39.109Z,40.36
2019-04-11T11:27:07.429Z,39.86
2019-04-11T11:29:58.144Z,40.12
2019-04-11T11:32:29.373Z,40.07
2019-04-11T11:35:01.209Z,40.92
2019-04-11T11:37:35.713Z,40.72
2019-04-11T11:40:13.795Z,41.02
2019-04-11T11:42:52.608Z,41.39
2019-04-11T11:45:29.979Z,41.32
2019-04-11T11:48:19.195Z,41.48
2019-04-11T11:50:51.400Z,41.71
2019-04-11T11:53:28.331Z,40.66
2019-04-11T11:56:00.123Z,40.20
2019-04-11T11:58:31.665Z,40.28
2019-04-11T12:01:05.841Z,40.71
2019-04-11T12:03:40.754Z,40.58
2019-04-11T12:06:10.909Z,40.59
2019-04-11T12:09:00.235Z,40.69
2019-04-11T12:11:30.380Z,41.07
2019-04-11T12:14:18.355Z,41.06
2019-04-11T12:16:59.523Z,41.39
2019-04-11T12:19:26.881Z,42.05
2019-04-11T12:21:58.440Z,41.68
2019-04-11T12:24:42.947Z,41.35
2019-04-11T12:27:18.450Z,41.82
2019-04-11T12:29:51.906Z,41.49
2019-04-11T12:32:30.552Z,41.70
2019-04-11T12:35:08.267Z,40.83
2019-04-11T12:37:43.357Z,40.52
2019-04-11T12:40:31.645Z,40.34
2019-04-11T12:43:03.183Z,39.59
2019-04-11T12:45:34.737Z,40.43
2019-04-11T12:48:04.699Z,40.78
2019-04-11T12:50:42.129Z,41.02
2019-04-11T12:53:12.108Z,41.06
2019-04-11T12:55:52.469Z,41.32
2019-04-11T12:58:27.184Z,41.20
2019-04-11T13:00:58.743Z,42.06
2019-04-11T13:03:46.798Z,41.87
2019-04-11T13:06:18.480Z,42.23
2019-04-11T13:08:52.734Z,41.88
2019-04-11T13:11:24.717Z,41.75
2019-04-11T13:13:58.983Z,41.69
2019-04-11T13:16:28.935Z,41.55
2019-04-11T13:19:03.484Z,41.43
2019-04-11T13:21:35.076Z,41.50
2019-04-11T13:24:09.257Z,41.43
2019-04-11T13:26:57.168Z,41.52
2019-04-11T13:29:31.924Z,41.80
2019-04-11T13:32:20.063Z,41.42
2019-04-11T13:35:08.077Z,41.48
2019-04-11T13:37:56.048Z,42.04
2019-04-11T13:40:30.672Z,41.87
2019-04-11T13:43:02.245Z,41.75
2019-04-11T13:45:33.787Z,41.81
2019-04-11T13:48:21.738Z,41.36
2019-04-11T13:50:53.291Z,41.17
2019-04-11T13:53:43.421Z,40.92
2019-04-11T13:56:13.873Z,41.06
2019-04-11T13:59:01.553Z,41.00
2019-04-11T14:01:32.026Z,41.14
2019-04-11T14:04:07.903Z,41.31
2019-04-11T14:06:35.356Z,41.01
2019-04-11T14:09:15.036Z,41.20
2019-04-11T14:11:46.697Z,40.58
2019-04-11T14:14:21.202Z,40.61
2019-04-11T14:16:52.741Z,40.60
2019-04-11T14:19:27.035Z,40.68
2019-04-11T14:21:56.992Z,40.41
2019-04-11T14:24:31.454Z,40.28
2019-04-11T14:27:02.980Z,40.49
2019-04-11T14:29:40.942Z,40.39
2019-04-11T14:32:24.668Z,40.77
2019-04-11T14:34:59.081Z,39.94
2019-04-11T14:37:38.249Z,40.42
2019-04-11T14:40:12.810Z,40.32
2019-04-11T14:42:53.145Z,40.44
2019-04-11T14:45:27.420Z,40.28
2019-04-11T14:48:14.042Z,40.28
2019-04-11T14:50:49.013Z,40.47
2019-04-11T14:53:26.382Z,40.67
2019-04-11T14:55:57.944Z,40.68
2019-04-11T14:58:30.527Z,40.78
2019-04-11T15:01:00.983Z,40.69
2019-04-11T15:03:32.517Z,41.25
2019-04-11T15:06:09.979Z,40.99
2019-04-11T15:08:41.511Z,41.15
2019-04-11T15:11:31.454Z,41.00
2019-04-11T15:14:05.767Z,41.49
2019-04-11T15:16:37.343Z,41.05
2019-04-11T15:19:07.311Z,41.25
2019-04-11T15:21:54.967Z,41.28
2019-04-11T15:24:24.934Z,41.39
2019-04-11T15:26:56.472Z,41.50
2019-04-11T15:29:28.004Z,41.47
2019-04-11T15:32:01.960Z,41.73
2019-04-11T15:34:38.366Z,42.20
2019-04-11T15:37:18.539Z,41.97
2019-04-11T15:39:50.072Z,42.40
2019-04-11T15:42:24.480Z,42.63
2019-04-11T15:44:56.012Z,42.93
2019-04-11T15:47:27.013Z,42.93
2019-04-11T15:50:07.723Z,42.77
2019-04-11T15:52:39.261Z,42.89
2019-04-11T15:55:19.722Z,43.47
2019-04-11T15:57:49.716Z,43.52
2019-04-11T16:00:27.232Z,43.52
2019-04-11T16:03:01.870Z,43.95
2019-04-11T16:05:49.864Z,43.84
2019-04-11T16:08:27.626Z,43.80
2019-04-11T16:11:15.447Z,43.91
2019-04-11T16:14:06.040Z,43.87
2019-04-11T16:16:43.814Z,44.05
2019-04-11T16:19:21.623Z,43.98
2019-04-11T16:22:09.458Z,44.36
2019-04-11T16:24:41.128Z,44.76
2019-04-11T16:27:25.099Z,45.01
2019-04-11T16:30:11.873Z,44.92
2019-04-11T16:32:43.415Z,45.27
2019-04-11T16:35:20.734Z,45.47
2019-04-11T16:38:00.581Z,45.72
2019-04-11T16:40:44.753Z,45.68
2019-04-11T16:43:14.721Z,45.76
2019-04-11T16:45:54.594Z,45.91
2019-04-11T16:48:25.691Z,46.12
2019-04-11T16:50:55.837Z,46.20
2019-04-11T16:53:25.848Z,46.51
2019-04-11T16:55:55.823Z,47.08
2019-04-11T16:58:25.797Z,47.12
2019-04-11T17:00:55.800Z,47.86
2019-04-11T17:03:25.815Z,47.85
2019-04-11T17:06:09.346Z,48.49
2019-04-11T17:08:40.875Z,48.49
2019-04-11T17:11:12.441Z,48.56
2019-04-11T17:13:42.403Z,48.55
2019-04-11T17:16:13.400Z,48.41
2019-04-11T17:18:43.366Z,49.29
2019-04-11T17:21:13.342Z,49.03
2019-04-11T17:23:46.780Z,49.26
2019-04-11T17:26:14.972Z,49.20
2019-04-11T17:28:45.035Z,49.46
2019-04-11T17:31:14.980Z,49.90
2019-04-11T17:33:44.945Z,49.79
2019-04-11T17:36:14.979Z,49.92
2019-04-11T17:38:44.946Z,50.00
2019-04-11T17:41:14.877Z,50.32
2019-04-11T17:43:47.024Z,50.21
2019-04-11T17:46:16.507Z,50.31
2019-04-11T17:48:46.492Z,50.42
2019-04-11T17:51:16.462Z,50.30
2019-04-11T17:53:46.434Z,50.22
2019-04-11T17:56:16.409Z,50.46
2019-04-11T17:58:46.387Z,50.83
2019-04-11T18:01:16.363Z,50.68
2019-04-11T18:03:46.435Z,50.92
2019-04-11T18:06:17.202Z,50.73
2019-04-11T18:08:51.316Z,51.12
2019-04-11T18:11:20.408Z,50.94
2019-04-11T18:13:50.370Z,50.88
2019-04-11T18:16:20.440Z,51.13
2019-04-11T18:18:50.414Z,51.10
2019-04-11T18:21:20.380Z,50.71
2019-04-11T18:23:50.691Z,50.70
2019-04-11T18:26:21.502Z,50.77
2019-04-11T18:28:52.646Z,50.67
2019-04-11T18:31:24.755Z,50.83
2019-04-11T18:33:54.338Z,50.89
2019-04-11T18:36:24.309Z,50.72
2019-04-11T18:38:54.269Z,50.53
2019-04-11T18:41:24.235Z,50.68
2019-04-11T18:43:54.210Z,50.71
2019-04-11T18:46:24.278Z,50.84
2019-04-11T18:48:54.549Z,50.76
2019-04-11T18:51:24.730Z,50.37
2019-04-11T18:53:54.716Z,50.26
2019-04-11T18:56:53.511Z,50.33
2019-04-11T18:59:22.278Z,50.34
2019-04-11T19:03:10.321Z,50.68
2019-04-11T19:09:32.581Z,50.59
2019-04-11T19:14:43.784Z,50.14
2019-04-11T19:17:25.824Z,50.35
2019-04-11T19:20:27.107Z,50.45
2019-04-11T19:24:41.910Z,50.32
2019-04-11T19:32:18.305Z,50.64
2019-04-11T19:38:38.131Z,51.20
2019-04-11T19:40:44.122Z,51.16
2019-04-11T19:43:13.280Z,51.21
2019-04-11T19:49:07.162Z,51.39
2019-04-11T19:55:17.584Z,51.28
2019-04-11T19:57:46.799Z,51.52
2019-04-11T20:09:41.998Z,51.82
2019-04-11T20:12:08.434Z,52.10
2019-04-11T20:14:56.290Z,52.24
2019-04-11T20:17:52.909Z,52.07
2019-04-11T20:20:20.919Z,52.55
2019-04-11T20:22:59.362Z,52.60
2019-04-11T20:25:22.645Z,52.35
2019-04-11T20:27:53.746Z,52.20
2019-04-11T20:30:25.420Z,52.12
2019-04-11T20:32:55.382Z,52.49
2019-04-11T20:35:29.001Z,52.54
2019-04-11T20:37:57.970Z,52.51
2019-04-11T20:40:28.037Z,52.26
2019-04-11T20:42:58.126Z,52.58
2019-04-11T20:48:48.272Z,52.86
2019-04-11T20:51:21.127Z,52.90
2019-04-11T20:54:23.524Z,52.83
2019-04-11T20:57:00.220Z,53.13
2019-04-11T20:59:34.871Z,52.99
2019-04-11T21:02:14.357Z,53.10
2019-04-11T21:11:09.108Z,53.39
2019-04-11T21:32:32.688Z,54.93
2019-04-11T21:35:31.026Z,55.42
2019-04-11T21:38:02.264Z,55.56
2019-04-11T21:40:35.602Z,55.45
2019-04-11T21:43:06.195Z,55.56
2019-04-11T21:45:36.461Z,55.80
2019-04-11T21:48:07.020Z,56.00
2019-04-11T21:50:40.409Z,56.18
2019-04-11T21:53:08.647Z,56.15
2019-04-11T21:55:38.613Z,56.16
2019-04-11T21:58:08.582Z,56.20
2019-04-11T22:00:42.063Z,56.38
2019-04-11T22:03:12.434Z,56.14
2019-04-11T22:05:42.504Z,56.08
2019-04-11T22:08:12.468Z,56.32
2019-04-11T22:10:42.443Z,56.44
2019-04-11T22:13:12.413Z,56.43
2019-04-11T22:15:43.164Z,56.39
2019-04-11T22:18:16.828Z,56.50
2019-04-11T22:20:45.791Z,56.50
2019-04-11T22:23:15.917Z,56.58
2019-04-11T22:25:45.879Z,56.82
2019-04-11T22:28:15.851Z,56.68
2019-04-11T22:30:46.526Z,56.64
2019-04-11T22:33:18.261Z,56.72
2019-04-11T22:35:48.244Z,56.69
2019-04-11T22:38:18.207Z,56.52
2019-04-11T22:40:48.172Z,56.55
2019-04-11T22:43:24.301Z,56.54
2019-04-11T22:45:50.001Z,56.53
2019-04-11T22:48:19.963Z,56.84
2019-04-11T22:50:50.033Z,56.79
2019-04-11T22:53:20.105Z,57.01
2019-04-11T22:55:50.075Z,56.89
2019-04-11T22:58:20.046Z,56.38
2019-04-11T23:00:51.627Z,56.44
2019-04-11T23:03:23.456Z,56.34
2019-04-11T23:05:53.437Z,56.16
2019-04-11T23:08:23.385Z,56.26
2019-04-11T23:10:53.378Z,56.21
2019-04-11T23:13:23.445Z,55.94
2019-04-11T23:15:54.452Z,56.38
2019-04-11T23:18:24.677Z,55.65
2019-04-11T23:20:56.050Z,55.79
2019-04-11T23:23:26.211Z,55.41
2019-04-11T23:25:56.193Z,55.16
2019-04-11T23:28:26.254Z,54.92
2019-04-11T23:30:56.331Z,54.52
2019-04-11T23:33:26.292Z,54.23
2019-04-11T23:35:56.290Z,54.05
2019-04-11T23:38:26.254Z,54.25
2019-04-11T23:40:56.246Z,53.70
2019-04-11T23:43:26.213Z,53.43
2019-04-11T23:45:56.296Z,53.36
2019-04-11T23:48:26.252Z,52.68
2019-04-11T23:50:56.236Z,52.65
2019-04-11T23:53:29.161Z,52.43
2019-04-11T23:55:59.985Z,52.49
2019-04-11T23:58:31.771Z,52.24
